CYVC

La Ronge Airport

La Ronge, Saskatchewan, Canada
METAR CYVC 161800Z 00000KT 4SM -SN OVC048 M24/M27 A3029 RMK SC8 SLP312
Observed Flight Rules
Jan-16 @ 18:00 UTC (29 minutes ago) Marginal Visual Flight Rules
Visibility Clouds Conditions
4 miles
  • Overcast at 4,800' AGL
  • Light Snow
Temperatures Readings
Current -24°C / -11°F
Dewpoint -27°C / -17°F
Humidity 76%
Altimeter 30.29" Hg
Pressure 1031.2 hPa
Elevation 379
METAR CYVC 161800Z 00000KT 4SM -SN OVC048 M24/M27 A3029 RMK SC8 SLP312
Observed Flight Rules
Jan-16 @ 18:00 UTC
(29 minutes ago)
MVFR
Clouds
  • Overcast at 4,800' AGL
Conditions
  • Light Snow
Temperature Dewpoint
-24°C / -11°F -27°C / -17°F
Humidity Altimeter Pressure
76% 30.29" Hg 1031.2 hPa